sensor_id;sensor_type;location;lat;lon;timestamp;pressure;altitude;pressure_sealevel;temperature;humidity
51496;BME280;37572;52.094;4.870;2024-03-22T00:01:00;102121.97;;;15.56;61.61
51496;BME280;37572;52.094;4.870;2024-03-22T00:03:26;102115.59;;;15.57;61.60
51496;BME280;37572;52.094;4.870;2024-03-22T00:05:51;102108.22;;;15.59;61.33
51496;BME280;37572;52.094;4.870;2024-03-22T00:08:17;102118.81;;;15.61;61.38
51496;BME280;37572;52.094;4.870;2024-03-22T00:10:42;102104.53;;;15.60;61.49
51496;BME280;37572;52.094;4.870;2024-03-22T00:13:07;102101.69;;;15.62;61.15
51496;BME280;37572;52.094;4.870;2024-03-22T00:15:32;102106.06;;;15.63;61.26
51496;BME280;37572;52.094;4.870;2024-03-22T00:17:58;102099.72;;;15.64;61.08
51496;BME280;37572;52.094;4.870;2024-03-22T00:20:23;102094.50;;;15.62;60.90
51496;BME280;37572;52.094;4.870;2024-03-22T00:22:48;102084.59;;;15.63;61.02
51496;BME280;37572;52.094;4.870;2024-03-22T00:25:13;102077.53;;;15.62;60.89
51496;BME280;37572;52.094;4.870;2024-03-22T00:27:39;102075.00;;;15.60;60.72
51496;BME280;37572;52.094;4.870;2024-03-22T00:30:05;102064.25;;;15.60;60.72
51496;BME280;37572;52.094;4.870;2024-03-22T00:32:30;102064.41;;;15.59;60.58
51496;BME280;37572;52.094;4.870;2024-03-22T00:34:55;102057.53;;;15.56;60.44
51496;BME280;37572;52.094;4.870;2024-03-22T00:37:21;102049.63;;;15.54;60.39
51496;BME280;37572;52.094;4.870;2024-03-22T00:39:46;102047.09;;;15.53;60.48
51496;BME280;37572;52.094;4.870;2024-03-22T00:42:11;102038.38;;;15.51;60.52
51496;BME280;37572;52.094;4.870;2024-03-22T00:44:36;102033.16;;;15.49;60.45
51496;BME280;37572;52.094;4.870;2024-03-22T00:47:02;102017.38;;;15.46;60.42
51496;BME280;37572;52.094;4.870;2024-03-22T00:49:28;102018.34;;;15.45;60.13
51496;BME280;37572;52.094;4.870;2024-03-22T00:51:54;102023.91;;;15.44;60.14
51496;BME280;37572;52.094;4.870;2024-03-22T00:54:21;102025.06;;;15.41;60.11
51496;BME280;37572;52.094;4.870;2024-03-22T00:56:46;102019.00;;;15.39;60.31
51496;BME280;37572;52.094;4.870;2024-03-22T00:59:12;102018.50;;;15.35;60.26
51496;BME280;37572;52.094;4.870;2024-03-22T01:01:37;102021.34;;;15.34;60.25
51496;BME280;37572;52.094;4.870;2024-03-22T01:04:03;102017.13;;;15.31;60.33
51496;BME280;37572;52.094;4.870;2024-03-22T01:06:28;102014.59;;;15.30;60.24
51496;BME280;37572;52.094;4.870;2024-03-22T01:08:54;102023.31;;;15.32;60.38
51496;BME280;37572;52.094;4.870;2024-03-22T01:11:19;102017.94;;;15.32;60.25
51496;BME280;37572;52.094;4.870;2024-03-22T01:13:44;102017.94;;;15.32;60.17
51496;BME280;37572;52.094;4.870;2024-03-22T01:16:10;102025.84;;;15.33;60.21
51496;BME280;37572;52.094;4.870;2024-03-22T01:18:38;102030.22;;;15.34;60.25
51496;BME280;37572;52.094;4.870;2024-03-22T01:21:04;102036.09;;;15.38;60.26
51496;BME280;37572;52.094;4.870;2024-03-22T01:23:30;102028.88;;;15.39;60.19
51496;BME280;37572;52.094;4.870;2024-03-22T01:25:55;102028.88;;;15.39;60.09
51496;BME280;37572;52.094;4.870;2024-03-22T01:28:21;102024.69;;;15.36;60.04
51496;BME280;37572;52.094;4.870;2024-03-22T01:30:46;102019.63;;;15.33;60.03
51496;BME280;37572;52.094;4.870;2024-03-22T01:33:11;102024.34;;;15.31;59.84
51496;BME280;37572;52.094;4.870;2024-03-22T01:35:37;102017.44;;;15.28;59.76
51496;BME280;37572;52.094;4.870;2024-03-22T01:38:02;102012.38;;;15.25;59.86
51496;BME280;37572;52.094;4.870;2024-03-22T01:40:27;102010.03;;;15.22;59.91
51496;BME280;37572;52.094;4.870;2024-03-22T01:42:55;102013.84;;;15.20;59.82
51496;BME280;37572;52.094;4.870;2024-03-22T01:45:21;102012.50;;;15.15;60.05
51496;BME280;37572;52.094;4.870;2024-03-22T01:47:50;102010.13;;;15.12;59.81
51496;BME280;37572;52.094;4.870;2024-03-22T01:50:15;102007.75;;;15.09;60.01
51496;BME280;37572;52.094;4.870;2024-03-22T01:52:40;101999.19;;;15.06;59.97
51496;BME280;37572;52.094;4.870;2024-03-22T01:55:07;101998.47;;;15.04;60.14
51496;BME280;37572;52.094;4.870;2024-03-22T01:57:33;102002.31;;;15.01;60.24
51496;BME280;37572;52.094;4.870;2024-03-22T01:59:59;101996.28;;;14.99;60.23
51496;BME280;37572;52.094;4.870;2024-03-22T02:02:24;102006.31;;;14.97;60.25
51496;BME280;37572;52.094;4.870;2024-03-22T02:04:51;101996.75;;;14.94;60.29
51496;BME280;37572;52.094;4.870;2024-03-22T02:07:16;101997.88;;;14.92;60.33
51496;BME280;37572;52.094;4.870;2024-03-22T02:09:41;101993.53;;;14.91;60.31
51496;BME280;37572;52.094;4.870;2024-03-22T02:12:08;101999.06;;;14.89;60.37
51496;BME280;37572;52.094;4.870;2024-03-22T02:14:33;101990.16;;;14.89;60.34
51496;BME280;37572;52.094;4.870;2024-03-22T02:16:58;101990.34;;;14.87;60.28
51496;BME280;37572;52.094;4.870;2024-03-22T02:19:24;101997.50;;;14.87;60.38
51496;BME280;37572;52.094;4.870;2024-03-22T02:21:49;101995.84;;;14.86;60.52
51496;BME280;37572;52.094;4.870;2024-03-22T02:24:14;101991.31;;;14.86;60.59
51496;BME280;37572;52.094;4.870;2024-03-22T02:26:40;101980.59;;;14.86;60.51
51496;BME280;37572;52.094;4.870;2024-03-22T02:29:05;101972.56;;;14.86;60.51
51496;BME280;37572;52.094;4.870;2024-03-22T02:31:30;101971.88;;;14.84;60.47
51496;BME280;37572;52.094;4.870;2024-03-22T02:33:57;101972.03;;;14.83;60.75
51496;BME280;37572;52.094;4.870;2024-03-22T02:36:22;101963.47;;;14.79;60.36
51496;BME280;37572;52.094;4.870;2024-03-22T02:38:48;101955.88;;;14.74;60.61
51496;BME280;37572;52.094;4.870;2024-03-22T02:41:13;101947.16;;;14.72;60.77
51496;BME280;37572;52.094;4.870;2024-03-22T02:43:38;101943.91;;;14.69;60.79
51496;BME280;37572;52.094;4.870;2024-03-22T02:46:04;101934.34;;;14.66;60.90
51496;BME280;37572;52.094;4.870;2024-03-22T02:48:29;101926.47;;;14.65;60.97
51496;BME280;37572;52.094;4.870;2024-03-22T02:50:56;101926.63;;;14.63;60.80
51496;BME280;37572;52.094;4.870;2024-03-22T02:53:22;101917.06;;;14.60;60.94
51496;BME280;37572;52.094;4.870;2024-03-22T02:55:47;101908.59;;;14.55;61.06
51496;BME280;37572;52.094;4.870;2024-03-22T02:58:13;101914.13;;;14.54;61.04
51496;BME280;37572;52.094;4.870;2024-03-22T03:00:38;101915.13;;;14.53;61.02
51496;BME280;37572;52.094;4.870;2024-03-22T03:03:07;101904.72;;;14.50;61.29
51496;BME280;37572;52.094;4.870;2024-03-22T03:05:32;101901.34;;;14.48;61.26
51496;BME280;37572;52.094;4.870;2024-03-22T03:07:57;101898.16;;;14.44;61.27
51496;BME280;37572;52.094;4.870;2024-03-22T03:10:23;101889.41;;;14.42;61.37
51496;BME280;37572;52.094;4.870;2024-03-22T03:12:48;101887.88;;;14.39;61.38
51496;BME280;37572;52.094;4.870;2024-03-22T03:15:14;101881.84;;;14.37;61.48
51496;BME280;37572;52.094;4.870;2024-03-22T03:17:39;101881.84;;;14.37;61.54
51496;BME280;37572;52.094;4.870;2024-03-22T03:20:05;101872.13;;;14.36;61.49
51496;BME280;37572;52.094;4.870;2024-03-22T03:22:35;101857.19;;;14.34;61.47
51496;BME280;37572;52.094;4.870;2024-03-22T03:25:00;101850.16;;;14.33;61.43
51496;BME280;37572;52.094;4.870;2024-03-22T03:27:26;101840.41;;;14.32;61.49
51496;BME280;37572;52.094;4.870;2024-03-22T03:29:51;101844.94;;;14.31;61.63
51496;BME280;37572;52.094;4.870;2024-03-22T03:32:17;101845.94;;;14.30;61.43
51496;BME280;37572;52.094;4.870;2024-03-22T03:34:42;101844.28;;;14.29;61.60
51496;BME280;37572;52.094;4.870;2024-03-22T03:37:07;101847.63;;;14.31;61.33
51496;BME280;37572;52.094;4.870;2024-03-22T03:39:32;101852.16;;;14.31;61.61
51496;BME280;37572;52.094;4.870;2024-03-22T03:41:58;101849.47;;;14.31;61.54
51496;BME280;37572;52.094;4.870;2024-03-22T03:44:23;101852.47;;;14.28;61.75
51496;BME280;37572;52.094;4.870;2024-03-22T03:46:48;101847.09;;;14.28;61.77
51496;BME280;37572;52.094;4.870;2024-03-22T03:49:14;101844.56;;;14.26;61.63
51496;BME280;37572;52.094;4.870;2024-03-22T03:51:39;101837.53;;;14.25;61.68
51496;BME280;37572;52.094;4.870;2024-03-22T03:54:04;101834.16;;;14.23;61.74
51496;BME280;37572;52.094;4.870;2024-03-22T03:56:29;101827.97;;;14.22;61.74
51496;BME280;37572;52.094;4.870;2024-03-22T03:58:55;101823.44;;;14.23;61.88
51496;BME280;37572;52.094;4.870;2024-03-22T04:01:21;101827.13;;;14.22;61.84
51496;BME280;37572;52.094;4.870;2024-03-22T04:03:48;101821.91;;;14.20;61.87
51496;BME280;37572;52.094;4.870;2024-03-22T04:06:13;101820.25;;;14.19;61.58
51496;BME280;37572;52.094;4.870;2024-03-22T04:08:39;101832.81;;;14.19;61.76
51496;BME280;37572;52.094;4.870;2024-03-22T04:11:04;101829.13;;;14.20;61.72
51496;BME280;37572;52.094;4.870;2024-03-22T04:13:29;101836.31;;;14.19;61.65
51496;BME280;37572;52.094;4.870;2024-03-22T04:15:58;101826.44;;;14.20;61.81
51496;BME280;37572;52.094;4.870;2024-03-22T04:18:23;101832.63;;;14.20;61.60
51496;BME280;37572;52.094;4.870;2024-03-22T04:20:56;101833.63;;;14.19;61.86
51496;BME280;37572;52.094;4.870;2024-03-22T04:23:22;101840.50;;;14.22;61.83
51496;BME280;37572;52.094;4.870;2024-03-22T04:28:18;101834.16;;;14.23;61.70
51496;BME280;37572;52.094;4.870;2024-03-22T04:30:43;101833.84;;;14.26;61.58
51496;BME280;37572;52.094;4.870;2024-03-22T04:33:09;101840.06;;;14.27;61.62
51496;BME280;37572;52.094;4.870;2024-03-22T04:35:34;101848.75;;;14.29;61.58
51496;BME280;37572;52.094;4.870;2024-03-22T04:37:59;101847.63;;;14.31;61.33
51496;BME280;37572;52.094;4.870;2024-03-22T04:40:24;101850.31;;;14.31;61.40
51496;BME280;37572;52.094;4.870;2024-03-22T04:42:50;101837.91;;;14.30;61.25
51496;BME280;37572;52.094;4.870;2024-03-22T04:45:15;101849.63;;;14.29;61.20
51496;BME280;37572;52.094;4.870;2024-03-22T04:47:41;101850.47;;;14.30;61.61
51496;BME280;37572;52.094;4.870;2024-03-22T04:50:08;101848.63;;;14.30;61.36
51496;BME280;37572;52.094;4.870;2024-03-22T04:52:34;101844.13;;;14.31;61.07
51496;BME280;37572;52.094;4.870;2024-03-22T04:54:59;101846.66;;;14.32;61.04
51496;BME280;37572;52.094;4.870;2024-03-22T04:57:26;101844.94;;;14.31;61.44
51496;BME280;37572;52.094;4.870;2024-03-22T04:59:52;101844.94;;;14.31;61.03
51496;BME280;37572;52.094;4.870;2024-03-22T05:02:17;101853.00;;;14.31;61.19
51496;BME280;37572;52.094;4.870;2024-03-22T05:04:43;101849.31;;;14.32;60.95
51496;BME280;37572;52.094;4.870;2024-03-22T05:07:08;101847.63;;;14.31;60.99
51496;BME280;37572;52.094;4.870;2024-03-22T05:09:33;101848.47;;;14.32;61.08
51496;BME280;37572;52.094;4.870;2024-03-22T05:11:58;101844.94;;;14.31;60.91
51496;BME280;37572;52.094;4.870;2024-03-22T05:14:24;101840.56;;;14.30;60.91
51496;BME280;37572;52.094;4.870;2024-03-22T05:16:49;101838.75;;;14.31;61.07
51496;BME280;37572;52.094;4.870;2024-03-22T05:19:14;101831.72;;;14.30;60.89
51496;BME280;37572;52.094;4.870;2024-03-22T05:21:39;101829.03;;;14.30;60.64
51496;BME280;37572;52.094;4.870;2024-03-22T05:24:06;101825.53;;;14.29;60.81
51496;BME280;37572;52.094;4.870;2024-03-22T05:26:32;101814.09;;;14.27;60.83
51496;BME280;37572;52.094;4.870;2024-03-22T05:29:01;101821.28;;;14.27;60.92
51496;BME280;37572;52.094;4.870;2024-03-22T05:31:27;101822.47;;;14.24;60.94
51496;BME280;37572;52.094;4.870;2024-03-22T05:33:53;101815.25;;;14.24;60.76
51496;BME280;37572;52.094;4.870;2024-03-22T05:36:18;101816.94;;;14.25;60.73
51496;BME280;37572;52.094;4.870;2024-03-22T05:38:43;101805.22;;;14.27;60.65
51496;BME280;37572;52.094;4.870;2024-03-22T05:41:09;101805.38;;;14.25;60.42
51496;BME280;37572;52.094;4.870;2024-03-22T05:43:34;101806.38;;;14.24;60.41
51496;BME280;37572;52.094;4.870;2024-03-22T05:46:00;101800.16;;;14.23;60.55
51496;BME280;37572;52.094;4.870;2024-03-22T05:48:25;101790.31;;;14.24;60.49
51496;BME280;37572;52.094;4.870;2024-03-22T05:50:51;101800.16;;;14.23;60.58
51496;BME280;37572;52.094;4.870;2024-03-22T05:53:17;101807.22;;;14.24;60.48
51496;BME280;37572;52.094;4.870;2024-03-22T05:55:43;101795.69;;;14.24;60.54
51496;BME280;37572;52.094;4.870;2024-03-22T05:58:08;101796.50;;;14.24;60.41
51496;BME280;37572;52.094;4.870;2024-03-22T06:00:34;101789.31;;;14.25;60.32
51496;BME280;37572;52.094;4.870;2024-03-22T06:02:59;101774.09;;;14.25;60.19
51496;BME280;37572;52.094;4.870;2024-03-22T06:05:25;101780.13;;;14.28;60.05
51496;BME280;37572;52.094;4.870;2024-03-22T06:07:50;101775.75;;;14.27;60.07
51496;BME280;37572;52.094;4.870;2024-03-22T06:10:15;101781.63;;;14.30;60.05
51496;BME280;37572;52.094;4.870;2024-03-22T06:12:42;101772.59;;;14.31;59.91
51496;BME280;37572;52.094;4.870;2024-03-22T06:15:09;101769.78;;;14.33;59.82
51496;BME280;37572;52.094;4.870;2024-03-22T06:17:35;101774.97;;;14.34;59.74
51496;BME280;37572;52.094;4.870;2024-03-22T06:20:00;101768.59;;;14.35;59.77
51496;BME280;37572;52.094;4.870;2024-03-22T06:22:26;101769.63;;;14.34;59.88
51496;BME280;37572;52.094;4.870;2024-03-22T06:24:51;101777.66;;;14.34;59.81
51496;BME280;37572;52.094;4.870;2024-03-22T06:27:17;101769.63;;;14.34;60.27
51496;BME280;37572;52.094;4.870;2024-03-22T06:29:42;101769.47;;;14.36;59.90
51496;BME280;37572;52.094;4.870;2024-03-22T06:32:08;101781.16;;;14.35;59.78
51496;BME280;37572;52.094;4.870;2024-03-22T06:34:33;101774.81;;;14.36;59.73
51496;BME280;37572;52.094;4.870;2024-03-22T06:36:58;101784.06;;;14.41;59.93
51496;BME280;37572;52.094;4.870;2024-03-22T06:39:24;101774.72;;;14.46;59.69
51496;BME280;37572;52.094;4.870;2024-03-22T06:41:49;101778.75;;;14.50;59.65
51496;BME280;37572;52.094;4.870;2024-03-22T06:44:14;101781.13;;;14.53;59.60
51496;BME280;37572;52.094;4.870;2024-03-22T06:46:39;101784.47;;;14.55;59.54
51496;BME280;37572;52.094;4.870;2024-03-22T06:49:05;101776.13;;;14.58;59.40
51496;BME280;37572;52.094;4.870;2024-03-22T06:51:30;101778.69;;;14.59;59.20
51496;BME280;37572;52.094;4.870;2024-03-22T06:53:55;101776.00;;;14.59;59.04
51496;BME280;37572;52.094;4.870;2024-03-22T06:56:21;101775.16;;;14.59;59.12
51496;BME280;37572;52.094;4.870;2024-03-22T06:58:46;101772.31;;;14.60;59.12
51496;BME280;37572;52.094;4.870;2024-03-22T07:01:12;101771.16;;;14.63;58.96
51496;BME280;37572;52.094;4.870;2024-03-22T07:03:37;101776.19;;;14.66;58.99
51496;BME280;37572;52.094;4.870;2024-03-22T07:06:02;101773.50;;;14.66;58.83
51496;BME280;37572;52.094;4.870;2024-03-22T07:08:28;101760.94;;;14.67;58.70
51496;BME280;37572;52.094;4.870;2024-03-22T07:10:54;101767.47;;;14.64;58.71
51496;BME280;37572;52.094;4.870;2024-03-22T07:13:20;101769.13;;;14.65;58.69
51496;BME280;37572;52.094;4.870;2024-03-22T07:15:45;101771.31;;;14.61;58.58
51496;BME280;37572;52.094;4.870;2024-03-22T07:18:12;101767.78;;;14.61;58.83
51496;BME280;37572;52.094;4.870;2024-03-22T07:20:38;101781.19;;;14.61;58.76
51496;BME280;37572;52.094;4.870;2024-03-22T07:23:03;101777.69;;;14.60;58.87
51496;BME280;37572;52.094;4.870;2024-03-22T07:25:29;101786.25;;;14.64;58.94
51496;BME280;37572;52.094;4.870;2024-03-22T07:27:54;101785.22;;;14.65;58.83
51496;BME280;37572;52.094;4.870;2024-03-22T07:30:20;101783.41;;;14.66;58.94
51496;BME280;37572;52.094;4.870;2024-03-22T07:32:46;101783.25;;;14.67;58.98
51496;BME280;37572;52.094;4.870;2024-03-22T07:35:12;101773.34;;;14.68;58.98
51496;BME280;37572;52.094;4.870;2024-03-22T07:37:38;101771.50;;;14.68;58.95
51496;BME280;37572;52.094;4.870;2024-03-22T07:40:03;101783.06;;;14.69;59.01
51496;BME280;37572;52.094;4.870;2024-03-22T07:42:30;101776.03;;;14.68;58.93
51496;BME280;37572;52.094;4.870;2024-03-22T07:44:55;101771.81;;;14.65;59.11
51496;BME280;37572;52.094;4.870;2024-03-22T07:47:21;101775.69;;;14.63;58.96
51496;BME280;37572;52.094;4.870;2024-03-22T07:49:46;101777.50;;;14.62;59.45
51496;BME280;37572;52.094;4.870;2024-03-22T07:52:11;101780.53;;;14.59;59.53
51496;BME280;37572;52.094;4.870;2024-03-22T07:54:37;101783.19;;;14.59;59.67
51496;BME280;37572;52.094;4.870;2024-03-22T07:57:02;101766.53;;;14.55;59.78
51496;BME280;37572;52.094;4.870;2024-03-22T07:59:29;101771.38;;;14.52;60.40
51496;BME280;37572;52.094;4.870;2024-03-22T08:01:54;101774.22;;;14.50;60.13
51496;BME280;37572;52.094;4.870;2024-03-22T08:04:19;101776.22;;;14.48;60.24
51496;BME280;37572;52.094;4.870;2024-03-22T08:06:45;101772.19;;;14.44;60.38
51496;BME280;37572;52.094;4.870;2024-03-22T08:09:11;101775.72;;;14.44;60.57
51496;BME280;37572;52.094;4.870;2024-03-22T08:11:36;101772.34;;;14.42;60.69
51496;BME280;37572;52.094;4.870;2024-03-22T08:14:01;101778.84;;;14.40;60.31
51496;BME280;37572;52.094;4.870;2024-03-22T08:16:29;101766.63;;;14.37;60.83
51496;BME280;37572;52.094;4.870;2024-03-22T08:18:54;101772.16;;;14.36;60.78
51496;BME280;37572;52.094;4.870;2024-03-22T08:21:20;101772.31;;;14.34;61.10
51496;BME280;37572;52.094;4.870;2024-03-22T08:23:45;101779.66;;;14.32;61.36
51496;BME280;37572;52.094;4.870;2024-03-22T08:26:10;101770.59;;;14.33;61.32
51496;BME280;37572;52.094;4.870;2024-03-22T08:28:35;101783.31;;;14.31;61.51
51496;BME280;37572;52.094;4.870;2024-03-22T08:31:04;101785.47;;;14.28;61.62
51496;BME280;37572;52.094;4.870;2024-03-22T08:33:30;101781.09;;;14.27;61.76
51496;BME280;37572;52.094;4.870;2024-03-22T08:35:55;101785.63;;;14.26;61.90
51496;BME280;37572;52.094;4.870;2024-03-22T08:38:21;101772.75;;;14.30;62.05
51496;BME280;37572;52.094;4.870;2024-03-22T08:40:46;101768.25;;;14.30;62.01
51496;BME280;37572;52.094;4.870;2024-03-22T08:43:11;101772.59;;;14.31;62.07
51496;BME280;37572;52.094;4.870;2024-03-22T08:45:36;101765.56;;;14.30;62.05
51496;BME280;37572;52.094;4.870;2024-03-22T08:48:02;101759.38;;;14.30;62.27
51496;BME280;37572;52.094;4.870;2024-03-22T08:50:28;101766.25;;;14.32;62.21
51496;BME280;37572;52.094;4.870;2024-03-22T08:52:53;101762.56;;;14.33;62.39
51496;BME280;37572;52.094;4.870;2024-03-22T08:55:18;101763.41;;;14.34;62.31
51496;BME280;37572;52.094;4.870;2024-03-22T08:57:44;101758.03;;;14.34;62.44
51496;BME280;37572;52.094;4.870;2024-03-22T09:00:09;101758.91;;;14.34;62.60
51496;BME280;37572;52.094;4.870;2024-03-22T09:02:36;101761.59;;;14.34;62.53
51496;BME280;37572;52.094;4.870;2024-03-22T09:05:01;101752.69;;;14.34;62.69
51496;BME280;37572;52.094;4.870;2024-03-22T09:07:26;101758.91;;;14.34;62.79
51496;BME280;37572;52.094;4.870;2024-03-22T09:09:52;101759.72;;;14.35;62.91
51496;BME280;37572;52.094;4.870;2024-03-22T09:12:18;101757.06;;;14.35;62.84
51496;BME280;37572;52.094;4.870;2024-03-22T09:14:44;101753.38;;;14.36;63.01
51496;BME280;37572;52.094;4.870;2024-03-22T09:17:09;101755.19;;;14.35;62.99
51496;BME280;37572;52.094;4.870;2024-03-22T09:19:34;101752.38;;;14.37;62.91
51496;BME280;37572;52.094;4.870;2024-03-22T09:22:00;101762.25;;;14.36;63.01
51496;BME280;37572;52.094;4.870;2024-03-22T09:24:25;101755.19;;;14.35;63.08
51496;BME280;37572;52.094;4.870;2024-03-22T09:26:50;101753.53;;;14.34;62.83
51496;BME280;37572;52.094;4.870;2024-03-22T09:29:15;101751.19;;;14.31;63.15
51496;BME280;37572;52.094;4.870;2024-03-22T09:31:41;101757.53;;;14.30;63.24
51496;BME280;37572;52.094;4.870;2024-03-22T09:34:06;101750.50;;;14.29;63.21
51496;BME280;37572;52.094;4.870;2024-03-22T09:36:31;101746.97;;;14.29;63.39
51496;BME280;37572;52.094;4.870;2024-03-22T09:39:00;101748.50;;;14.31;63.46
51496;BME280;37572;52.094;4.870;2024-03-22T09:41:26;101753.53;;;14.34;63.45
51496;BME280;37572;52.094;4.870;2024-03-22T09:43:51;101756.91;;;14.36;63.41
51496;BME280;37572;52.094;4.870;2024-03-22T09:46:18;101755.91;;;14.37;63.32
51496;BME280;37572;52.094;4.870;2024-03-22T09:48:46;101752.22;;;14.38;63.46
51496;BME280;37572;52.094;4.870;2024-03-22T09:51:12;101749.38;;;14.40;63.42
51496;BME280;37572;52.094;4.870;2024-03-22T09:53:39;101744.84;;;14.40;63.52
51496;BME280;37572;52.094;4.870;2024-03-22T09:56:05;101742.00;;;14.42;63.47
51496;BME280;37572;52.094;4.870;2024-03-22T09:58:30;101744.53;;;14.43;63.93
51496;BME280;37572;52.094;4.870;2024-03-22T10:00:56;101732.84;;;14.44;63.46
51496;BME280;37572;52.094;4.870;2024-03-22T10:03:25;101733.00;;;14.43;63.46
51496;BME280;37572;52.094;4.870;2024-03-22T10:05:51;101728.47;;;14.43;63.57
51496;BME280;37572;52.094;4.870;2024-03-22T10:08:16;101728.16;;;14.47;63.54
51496;BME280;37572;52.094;4.870;2024-03-22T10:10:41;101732.69;;;14.46;63.43
51496;BME280;37572;52.094;4.870;2024-03-22T10:13:06;101732.53;;;14.48;63.56
51496;BME280;37572;52.094;4.870;2024-03-22T10:15:32;101728.81;;;14.49;63.49
51496;BME280;37572;52.094;4.870;2024-03-22T10:17:57;101734.88;;;14.51;63.67
51496;BME280;37572;52.094;4.870;2024-03-22T10:20:23;101730.03;;;14.54;64.10
51496;BME280;37572;52.094;4.870;2024-03-22T10:22:55;101733.22;;;14.58;63.66
51496;BME280;37572;52.094;4.870;2024-03-22T10:25:20;101735.47;;;14.63;63.77
51496;BME280;37572;52.094;4.870;2024-03-22T10:27:46;101722.59;;;14.66;63.58
51496;BME280;37572;52.094;4.870;2024-03-22T10:30:12;101729.28;;;14.70;63.60
51496;BME280;37572;52.094;4.870;2024-03-22T10:32:40;101735.19;;;14.74;63.55
51496;BME280;37572;52.094;4.870;2024-03-22T10:35:05;101734.84;;;14.77;63.72
51496;BME280;37572;52.094;4.870;2024-03-22T10:37:34;101733.69;;;14.79;63.61
51496;BME280;37572;52.094;4.870;2024-03-22T10:40:03;101737.06;;;14.82;63.64
51496;BME280;37572;52.094;4.870;2024-03-22T10:42:36;101731.53;;;14.83;63.44
51496;BME280;37572;52.094;4.870;2024-03-22T10:45:06;101737.88;;;14.82;63.47
51496;BME280;37572;52.094;4.870;2024-03-22T10:47:32;101734.53;;;14.80;63.35
51496;BME280;37572;52.094;4.870;2024-03-22T10:52:36;101725.81;;;14.78;63.43
51496;BME280;37572;52.094;4.870;2024-03-22T10:55:04;101725.81;;;14.78;63.35
51496;BME280;37572;52.094;4.870;2024-03-22T10:57:32;101735.72;;;14.77;63.41
51496;BME280;37572;52.094;4.870;2024-03-22T11:00:02;101725.97;;;14.76;63.51
51496;BME280;37572;52.094;4.870;2024-03-22T11:02:28;101732.88;;;14.79;63.42
51496;BME280;37572;52.094;4.870;2024-03-22T11:04:57;101729.31;;;14.78;63.49
51496;BME280;37572;52.094;4.870;2024-03-22T11:07:22;101727.50;;;14.79;63.41
51496;BME280;37572;52.094;4.870;2024-03-22T11:09:55;101730.34;;;14.77;63.28
51496;BME280;37572;52.094;4.870;2024-03-22T11:12:21;101718.91;;;14.75;63.30
51496;BME280;37572;52.094;4.870;2024-03-22T11:14:46;101720.94;;;14.73;63.38
51496;BME280;37572;52.094;4.870;2024-03-22T11:17:12;101724.63;;;14.72;63.50
51496;BME280;37572;52.094;4.870;2024-03-22T11:19:38;101723.09;;;14.70;63.37
51496;BME280;37572;52.094;4.870;2024-03-22T11:22:07;101716.03;;;14.69;63.24
51496;BME280;37572;52.094;4.870;2024-03-22T11:24:33;101711.38;;;14.71;63.58
51496;BME280;37572;52.094;4.870;2024-03-22T11:26:58;101706.84;;;14.71;63.67
51496;BME280;37572;52.094;4.870;2024-03-22T11:29:24;101709.22;;;14.74;63.82
51496;BME280;37572;52.094;4.870;2024-03-22T11:31:50;101713.41;;;14.77;63.94
51496;BME280;37572;52.094;4.870;2024-03-22T11:34:15;101712.25;;;14.79;63.67
51496;BME280;37572;52.094;4.870;2024-03-22T11:36:40;101706.06;;;14.79;63.96
51496;BME280;37572;52.094;4.870;2024-03-22T11:39:06;101697.84;;;14.80;63.86
51496;BME280;37572;52.094;4.870;2024-03-22T11:41:31;101713.75;;;14.82;63.83
51496;BME280;37572;52.094;4.870;2024-03-22T11:43:58;101706.25;;;14.86;63.83
51496;BME280;37572;52.094;4.870;2024-03-22T11:46:25;101703.06;;;14.90;63.82
51496;BME280;37572;52.094;4.870;2024-03-22T11:48:52;101700.22;;;14.92;63.77
51496;BME280;37572;52.094;4.870;2024-03-22T11:51:18;101706.94;;;14.96;63.86
51496;BME280;37572;52.094;4.870;2024-03-22T11:53:53;101695.72;;;15.01;63.83
51496;BME280;37572;52.094;4.870;2024-03-22T11:56:21;101687.16;;;15.05;63.42
51496;BME280;37572;52.094;4.870;2024-03-22T11:58:47;101684.66;;;15.12;63.84
51496;BME280;37572;52.094;4.870;2024-03-22T12:01:14;101686.38;;;15.21;63.99
51496;BME280;37572;52.094;4.870;2024-03-22T12:03:40;101688.56;;;15.26;63.64
51496;BME280;37572;52.094;4.870;2024-03-22T12:06:09;101691.91;;;15.28;63.52
51496;BME280;37572;52.094;4.870;2024-03-22T12:08:35;101691.91;;;15.28;63.37
51496;BME280;37572;52.094;4.870;2024-03-22T12:11:00;101695.59;;;15.27;63.45
51496;BME280;37572;52.094;4.870;2024-03-22T12:13:25;101686.53;;;15.28;63.40
51496;BME280;37572;52.094;4.870;2024-03-22T12:15:51;101681.84;;;15.30;63.14
51496;BME280;37572;52.094;4.870;2024-03-22T12:18:16;101685.56;;;15.29;63.02
51496;BME280;37572;52.094;4.870;2024-03-22T12:20:41;101678.50;;;15.28;63.25
51496;BME280;37572;52.094;4.870;2024-03-22T12:23:06;101681.00;;;15.29;63.14
51496;BME280;37572;52.094;4.870;2024-03-22T12:25:32;101674.13;;;15.35;63.12
51496;BME280;37572;52.094;4.870;2024-03-22T12:27:57;101669.97;;;15.41;63.04
51496;BME280;37572;52.094;4.870;2024-03-22T12:30:22;101664.06;;;15.45;62.87
51496;BME280;37572;52.094;4.870;2024-03-22T12:32:48;101665.44;;;15.49;62.95
51496;BME280;37572;52.094;4.870;2024-03-22T12:35:13;101658.53;;;15.55;62.81
51496;BME280;37572;52.094;4.870;2024-03-22T12:37:38;101651.50;;;15.62;62.69
51496;BME280;37572;52.094;4.870;2024-03-22T12:40:05;101654.69;;;15.66;62.53
51496;BME280;37572;52.094;4.870;2024-03-22T12:42:33;101652.31;;;15.71;62.74
51496;BME280;37572;52.094;4.870;2024-03-22T12:44:58;101641.41;;;15.72;62.66
51496;BME280;37572;52.094;4.870;2024-03-22T12:47:23;101636.72;;;15.75;62.34